Latest Coastal Weather Observations for Ballina

IDN60701

Issued at 5:51 pm EST Monday 25 May 2015 (issued every 10 minutes, with the page automatically refreshed every 10 minutes)

About coastal observations | Map of coastal stations | Coastal observations for NSW | Marine services | Other Formats
Station Details ID: 058198 Name: BALLINA AIRPORT AWS Lat: -28.84 Lon: 153.56 Height: 1.3 m
Data from the previous 72 hours. | See also: Recent months at Ballina
Date/Time
EST
Temp

°C
Wind Pressure Rain
since 9am
mm
Weather Cloud Vis
km
Sea
Height
m
Swell
Dir
 
Speed
knots
Gust
knots
hPa Trend Height
m
Period
s
Dir
25/05:30pm 16.6 SW 5 6 1028.6 - 0.0 - - 10 - - - -
25/05:00pm 17.4 WSW 6 7 1029.4 - 0.0 - - 10 - - - -
25/04:30pm 18.7 SSW 4 6 1028.6 - 0.0 - - 10 - - - -
25/04:00pm 19.2 SSW 7 10 1028.6 - 0.0 - - 10 - - - -
25/03:30pm 19.6 SSW 8 10 1028.4 - 0.0 - - 10 - - - -
25/03:00pm 20.0 S 9 12 1028.6 - 0.0 - - 10 - - - -
25/02:30pm 20.9 S 8 11 1028.6 - 0.0 - - 10 - - - -
25/02:00pm 20.8 S 9 13 1028.9 - 0.0 - - 10 - - - -
25/01:30pm 20.8 S 9 12 1028.9 - 0.0 - - 10 - - - -
25/01:00pm 20.5 SSW 8 12 1029.1 - 0.0 - - 10 - - - -
25/12:30pm 19.6 SSW 7 11 1029.5 - 0.0 - Partly cloudy 10 - - - -
25/12:00pm 20.1 SW 7 11 1029.9 - 0.0 - Mostly clear 10 - - - -
25/11:30am 19.7 SW 8 11 1030.6 - 0.0 - Partly cloudy 10 - - - -
25/11:00am 19.1 WSW 8 12 1031.2 - 0.0 - Partly cloudy 10 - - - -
25/10:30am 18.6 WSW 7 9 1031.3 - 0.0 - Partly cloudy 10 - - - -
25/10:00am 18.0 WSW 8 11 1031.6 - 0.0 - Partly cloudy 10 - - - -
25/09:30am 17.5 W 7 10 1031.5 - 0.0 - Partly cloudy 10 - - - -
25/09:00am 16.4 SW 7 9 1031.1 - 1.2 - Cloudy 10 - - - -
25/08:30am 15.7 WSW 7 8 1031.0 - 1.2 - Cloudy 10 - - - -
25/08:00am 15.2 WSW 7 9 1030.9 - 1.2 - Cloudy 10 - - - -
25/07:30am 14.7 W 5 6 1030.7 - 1.2 - Cloudy 10 - - - -
25/07:00am 14.1 WSW 6 7 1030.7 - 1.2 - Partly cloudy 10 - - - -
25/06:30am 13.9 WSW 6 8 1030.5 - 1.2 - Partly cloudy 10 - - - -
25/06:00am 13.9 WSW 6 8 1030.3 - 1.2 - Mostly cloudy 10 - - - -
25/05:30am 14.4 WSW 7 9 1030.0 - 1.2 - Partly cloudy 10 - - - -
25/05:00am 14.6 WSW 7 9 1029.9 - 1.2 - Partly cloudy 10 - - - -
25/04:42am 14.6 WSW 7 9 1029.8 - 1.2 - Partly cloudy 10 - - - -
25/04:30am 14.5 WSW 7 10 1029.8 - 1.2 - Partly cloudy 5 - - - -
25/04:26am 14.4 WSW 6 8 1029.8 - 1.2 - Partly cloudy 5 - - - -
25/04:00am 14.0 W 8 9 1029.6 - 0.8 - Partly cloudy 10 - - - -
25/03:30am 14.2 W 7 9 1030.0 - 0.8 - Partly cloudy 10 - - - -
25/03:00am 14.3 W 5 7 1030.0 - 0.8 - Cloudy 10 - - - -
25/02:30am 14.3 W 7 8 1029.8 - 0.8 - Partly cloudy 10 - - - -
25/02:00am 14.5 W 7 9 1030.0 - 0.8 - Partly cloudy 10 - - - -
25/01:30am 14.8 W 5 6 1030.2 - 0.8 - Partly cloudy 10 - - - -
25/01:10am 14.9 W 5 6 1030.1 - 0.8 - Partly cloudy 10 - - - -
25/01:00am 14.9 WSW 5 7 1030.2 - 0.8 - Partly cloudy 5 - - - -
25/12:52am 15.0 WSW 5 9 1030.2 - 0.6 - Partly cloudy 5 - - - -
25/12:30am 14.9 WSW 3 5 1030.3 - 0.2 - Partly cloudy 8 - - - -
25/12:00am 14.8 W 7 9 1030.1 - 0.0 - Mostly cloudy 10 - - - -
 
Date/Time
EST
Temp

°C
Wind Pressure Rain
since 9am
mm
Weather Cloud Vis
km
Sea
Height
m
Swell
Dir
 
Speed
knots
Gust
knots
hPa Trend Height
m
Period
s
Dir
24/11:30pm 15.3 WSW 8 10 1030.3 - 0.0 - Partly cloudy 10 - - - -
24/11:00pm 15.0 WSW 8 10 1030.6 - 0.0 - Partly cloudy 10 - - - -
24/10:30pm 14.8 WSW 7 8 1030.5 - 0.0 - Partly cloudy 10 - - - -
24/10:00pm 15.1 WSW 6 7 1030.3 - 0.0 - Partly cloudy 10 - - - -
24/09:30pm 15.4 W 7 8 1030.6 - 0.0 - Partly cloudy 10 - - - -
24/09:00pm 15.8 W 8 9 1030.4 - 0.0 - Mostly cloudy 10 - - - -
24/08:30pm 16.4 WSW 8 11 1030.2 - 0.0 - Partly cloudy 10 - - - -
24/08:00pm 18.2 SSW 6 8 1030.0 - 0.0 - Partly cloudy 10 - - - -
24/07:30pm 18.1 S 8 13 1029.8 - 0.0 - Partly cloudy 10 - - - -
24/07:00pm 17.7 S 6 9 1029.5 - 0.0 - Partly cloudy 10 - - - -
24/06:30pm 17.8 SSW 9 12 1029.6 - 0.0 - Partly cloudy 10 - - - -
24/06:00pm 17.7 SW 6 9 1029.5 - 0.0 - Cloudy 10 - - - -
24/05:30pm 17.6 SSW 5 9 1029.2 - 0.0 - Partly cloudy 10 - - - -
24/05:00pm 17.4 SSE 12 19 1029.0 - 0.0 - Partly cloudy 10 - - - -
24/04:30pm 19.1 S 13 20 1028.5 - 0.0 - Partly cloudy 10 - - - -
24/04:00pm 19.1 SSW 9 15 1028.3 - 0.0 - Partly cloudy 10 - - - -
24/03:30pm 19.3 S 13 18 1028.2 - 0.0 - Partly cloudy 10 - - - -
24/03:00pm 19.1 SSW 13 17 1028.3 - 0.0 - Cloudy 10 - - - -
24/02:30pm 19.6 SSW 11 17 1028.2 - 0.0 - Partly cloudy 10 - - - -
24/02:00pm 19.6 SSW 13 20 1028.1 - 0.0 - Partly cloudy 10 - - - -
24/01:30pm 19.9 S 15 21 1028.0 - 0.0 - Partly cloudy 10 - - - -
24/01:00pm 19.3 SSW 15 21 1028.1 - 0.0 - Partly cloudy 10 - - - -
24/12:30pm 19.1 SSW 15 21 1028.1 - 0.0 - Partly cloudy 10 - - - -
24/12:00pm 18.9 S 13 17 1028.5 - 0.0 - Cloudy 10 - - - -
24/11:30am 18.7 SSW 12 17 1029.1 - 0.0 - Partly cloudy 10 - - - -
24/11:00am 19.0 SSW 12 19 1029.2 - 0.0 - Partly cloudy 10 - - - -
24/10:30am 18.1 SW 12 18 1029.4 - 0.0 - Partly cloudy 10 - - - -
24/10:00am 18.3 SW 12 17 1029.6 - 0.0 - Partly cloudy 10 - - - -
24/09:30am 17.1 WSW 10 14 1029.6 - 0.0 - Partly cloudy 10 - - - -
24/09:00am 15.0 WSW 9 11 1029.5 - 18.6 Recent precip. Cloudy 10 - - - -
24/08:30am 15.1 WSW 10 13 1029.4 - 18.4 - Partly cloudy 10 - - - -
24/08:00am 15.9 WSW 11 14 1028.5 - 18.4 - Partly cloudy 10 - - - -
24/07:30am 14.5 WSW 7 10 1028.2 - 18.4 - Partly cloudy 10 - - - -
24/07:00am 12.4 W 8 9 1027.9 - 18.4 - - 10 - - - -
24/06:30am 12.7 WSW 7 9 1027.4 - 18.4 - Partly cloudy 10 - - - -
24/06:00am 13.6 WSW 7 10 1027.3 - 18.4 - Mostly cloudy 10 - - - -
24/05:30am 13.7 WSW 9 12 1027.1 - 18.4 - Partly cloudy 10 - - - -
24/05:00am 13.8 SW 9 12 1026.8 - 18.4 - Partly cloudy 10 - - - -
24/04:30am 14.1 SW 9 11 1026.6 - 18.2 - Partly cloudy 10 - - - -
24/04:00am 14.1 WSW 8 11 1026.4 - 18.2 - Partly cloudy 10 - - - -
24/03:30am 14.1 WSW 8 11 1026.3 - 18.2 - Partly cloudy 10 - - - -
24/03:00am 13.7 WSW 6 9 1026.3 - 18.2 Recent precip. Mostly clear 10 - - - -
24/02:30am 14.4 SW 8 11 1026.3 - 18.2 - Partly cloudy 9 - - - -
24/02:00am 14.4 SW 8 11 1026.3 - 18.0 - Partly cloudy 10 - - - -
24/01:30am 14.6 SW 9 12 1026.3 - 18.0 - Partly cloudy 10 - - - -
24/01:00am 14.4 SW 10 12 1026.2 - 18.0 - Partly cloudy 10 - - - -
24/12:30am 14.3 WSW 8 10 1026.1 - 17.8 - Partly cloudy 10 - - - -
24/12:00am 14.3 WSW 8 11 1026.2 - 17.8 Recent precip. Cloudy 10 - - - -
 
Date/Time
EST
Temp

°C
Wind Pressure Rain
since 9am
mm
Weather Cloud Vis
km
Sea
Height
m
Swell
Dir
 
Speed
knots
Gust
knots
hPa Trend Height
m
Period
s
Dir
23/11:41pm 14.3 WSW 9 11 1026.3 - 17.8 - Partly cloudy 10 - - - -
23/11:30pm 14.3 WSW 7 12 1026.5 - 17.8 - Partly cloudy 5 - - - -
23/11:23pm 14.3 SW 8 11 1026.5 - 17.4 - Partly cloudy 6 - - - -
23/11:04pm 14.7 SW 11 16 1026.5 - 16.4 - Partly cloudy 4 - - - -
23/11:00pm 14.6 WSW 11 16 1026.5 - 15.6 - Partly cloudy 10 - - - -
23/10:33pm 14.7 SW 6 9 1026.6 - 15.4 - Partly cloudy 8 - - - -
23/10:30pm 14.7 SW 6 9 1026.6 - 15.4 - Partly cloudy 6 - - - -
23/10:05pm 14.7 S 4 12 1026.8 - 14.0 - Partly cloudy 0.7 - - - -
23/10:00pm 14.7 SW 7 12 1026.9 - 12.2 - Partly cloudy 1 - - - -
23/09:57pm 14.7 SW 8 12 1026.8 - 10.8 - Partly cloudy 3 - - - -
23/09:40pm 14.8 SW 9 13 1026.5 - 9.2 - Partly cloudy 9 - - - -
23/09:30pm 14.7 SW 8 11 1026.7 - 9.2 - Partly cloudy 4 - - - -
23/09:26pm 14.7 SW 7 11 1026.7 - 9.0 - Partly cloudy 2 - - - -
23/09:23pm 14.7 SW 7 11 1026.8 - 9.0 - Partly cloudy 1 - - - -
23/09:07pm 14.8 SW 10 13 1026.7 - 4.8 - - 5 - - - -
23/09:00pm 14.7 SW 9 13 1026.5 - 4.2 Recent precip. Cloudy 10 - - - -
23/08:30pm 15.0 SW 11 17 1026.3 - 4.0 - Partly cloudy 10 - - - -
23/08:26pm 15.1 WSW 10 15 1026.3 - 4.0 - Partly cloudy 10 - - - -
23/08:09pm 15.2 WSW 10 15 1026.3 - 3.8 - Partly cloudy 5 - - - -
23/08:07pm 15.1 WSW 10 15 1026.3 - 3.6 - Partly cloudy 7 - - - -
23/08:00pm 15.1 SW 10 14 1026.3 - 3.2 - Partly cloudy 10 - - - -
23/07:45pm 15.1 WSW 10 12 1026.3 - 2.0 - Partly cloudy 5 - - - -
23/07:30pm 15.2 WSW 8 10 1026.0 - 1.2 - Partly cloudy 8 - - - -
23/07:21pm 15.5 SW 11 15 1026.0 - 1.0 - Partly cloudy 10 - - - -
23/07:02pm 16.5 SW 9 15 1026.0 - 0.8 - Partly cloudy 5 - - - -
23/07:00pm 16.8 SW 9 13 1025.9 - 0.2 - Partly cloudy 10 - - - -
23/06:30pm 16.7 SW 9 13 1025.3 - 0.0 - Partly cloudy 10 - - - -
23/06:00pm 17.9 SSW 10 17 1025.1 - 0.0 - - 10 - - - -
23/05:30pm 18.6 S 12 22 1024.8 - 0.0 - Partly cloudy 10 - - - -
23/05:00pm 18.5 S 12 19 1024.6 - 0.0 - Partly cloudy 10 - - - -
23/04:30pm 18.8 S 13 19 1024.5 - 0.0 - Partly cloudy 10 - - - -
23/04:00pm 19.3 S 14 21 1024.4 - 0.0 - Partly cloudy 10 - - - -
23/03:30pm 19.7 S 14 20 1024.3 - 0.0 - Partly cloudy 10 - - - -
23/03:00pm 20.0 S 16 23 1024.1 - 0.0 - Mostly clear 10 - - - -
23/02:30pm 20.5 S 17 23 1023.9 - 0.0 - - 10 - - - -
23/02:00pm 20.6 S 16 22 1023.8 - 0.0 - - 10 - - - -
23/01:47pm 20.8 S 17 27 1023.7 - 0.0 - Partly cloudy 10 - - - -
23/01:30pm 20.5 SSE 17 24 1023.7 - 0.0 - Partly cloudy 10 - - - -
23/01:00pm 20.2 S 17 24 1023.8 - 0.0 - Partly cloudy 10 - - - -
23/12:30pm 19.9 S 14 20 1023.9 - 0.0 - Partly cloudy 10 - - - -
23/12:04pm 19.4 S 17 27 1024.2 - 0.0 - Partly cloudy 10 - - - -
23/12:00pm 19.6 S 17 24 1024.2 - 0.0 - Cloudy 10 - - - -
23/11:58am 19.6 S 17 24 1024.2 - 0.0 - Partly cloudy 10 - - - -
23/11:30am 17.9 SW 8 13 1024.5 - 0.0 - Partly cloudy 10 - - - -
23/11:11am 17.2 SW 15 25 1024.7 - 0.0 - Partly cloudy 10 - - - -
23/11:00am 18.5 SSW 9 16 1024.7 - 0.0 - Partly cloudy 10 - - - -
23/10:34am 18.4 SSW 15 25 1024.8 - 0.0 - Partly cloudy 10 - - - -
23/10:30am 19.0 SSW 14 22 1024.6 - 0.0 - Partly cloudy 10 - - - -
23/10:00am 17.6 SW 12 20 1024.6 - 0.0 - Partly cloudy 10 - - - -
23/09:30am 17.1 SW 12 18 1024.5 - 0.0 - Partly cloudy 10 - - - -
23/09:00am 17.0 SW 12 21 1024.0 - 0.2 - Mostly clear 10 - - - -
23/08:30am 15.4 SW 12 17 1023.7 - 0.2 - Partly cloudy 10 - - - -
23/08:00am 15.5 SW 13 19 1023.6 - 0.2 - Partly cloudy 10 - - - -
23/07:30am 15.0 WSW 11 15 1022.9 - 0.2 - Partly cloudy 10 - - - -
23/07:00am 15.1 SW 12 19 1022.5 - 0.2 - Partly cloudy 10 - - - -
23/06:30am 15.0 SW 11 15 1022.1 - 0.2 - Partly cloudy 10 - - - -
23/06:00am 14.9 SW 13 20 1021.5 - 0.2 - Cloudy 10 - - - -
23/05:30am 15.1 SW 14 19 1021.0 - 0.2 - Partly cloudy 10 - - - -
23/05:00am 14.8 SW 13 21 1020.5 - 0.2 - Partly cloudy 10 - - - -
23/04:30am 15.0 SW 11 16 1020.5 - 0.0 - Partly cloudy 10 - - - -
23/04:00am 15.6 SW 13 18 1020.0 - 0.0 - Partly cloudy 10 - - - -
23/03:30am 15.7 SW 14 18 1019.8 - 0.0 - Partly cloudy 10 - - - -
23/03:00am 16.0 SW 13 20 1019.7 - 0.0 - Cloudy 10 - - - -
23/02:30am 16.1 SW 12 19 1019.7 - 0.0 - Partly cloudy 10 - - - -
23/02:00am 16.5 SW 13 21 1019.8 - 0.0 - Partly cloudy 10 - - - -
23/01:30am 16.6 SW 14 20 1019.6 - 0.0 - Partly cloudy 10 - - - -
23/01:04am 17.3 SW 15 25 1019.8 - 0.0 - Partly cloudy 10 - - - -
23/01:00am 16.8 SW 13 19 1019.9 - 0.0 - Partly cloudy 10 - - - -
23/12:30am 17.3 SW 14 23 1019.5 - 0.0 - Partly cloudy 10 - - - -
23/12:00am 17.0 SW 13 20 1019.2 - 0.0 - Cloudy 10 - - - -
 
Date/Time
EST
Temp

°C
Wind Pressure Rain
since 9am
mm
Weather Cloud Vis
km
Sea
Height
m
Swell
Dir
 
Speed
knots
Gust
knots
hPa Trend Height
m
Period
s
Dir
22/11:30pm 17.1 SW 14 21 1019.0 - 0.0 - Cloudy 10 - - - -
22/11:00pm 16.7 SW 14 20 1018.9 - 0.0 - Cloudy 10 - - - -
22/10:30pm 16.5 SW 13 16 1018.6 - 0.0 - Partly cloudy 10 - - - -
22/10:00pm 16.8 SW 12 19 1018.5 - 0.0 - Cloudy 10 - - - -
22/09:30pm 16.9 SW 11 16 1018.0 - 0.0 - Partly cloudy 10 - - - -
22/09:00pm 17.1 WSW 11 16 1017.9 - 0.0 - Cloudy 10 - - - -
22/08:30pm 17.2 WSW 12 17 1017.4 - 0.0 - Cloudy 10 - - - -
22/08:00pm 16.9 WSW 11 14 1016.9 - 0.0 - Cloudy 10 - - - -
22/07:30pm 16.7 W 13 17 1016.4 - 0.0 - Cloudy 10 - - - -
22/07:00pm 16.2 W 8 11 1016.0 - 0.0 - Cloudy 10 - - - -
22/06:30pm 15.2 W 8 11 1015.7 - 0.0 - Partly cloudy 10 - - - -
22/06:00pm 15.1 W 8 10 1015.1 - 0.0 - - 10 - - - -

Other Formats:

Comma delimited format used in spreadsheet applications
http://www.bom.gov.au/fwo/IDN60701/IDN60701.94596.axf

JavaScript Object Notation format (JSON) in row-major order
http://www.bom.gov.au/fwo/IDN60701/IDN60701.94596.json